sensor_id;sensor_type;location;lat;lon;timestamp;temperature;humidity
22781;DHT22;11557;50.884;4.322;2022-11-15T00:00:27;12.50;99.90
22781;DHT22;11557;50.884;4.322;2022-11-15T00:02:53;12.80;99.90
22781;DHT22;11557;50.884;4.322;2022-11-15T00:05:19;12.50;99.90
22781;DHT22;11557;50.884;4.322;2022-11-15T00:07:46;12.50;99.90
22781;DHT22;11557;50.884;4.322;2022-11-15T00:10:11;12.50;99.90
22781;DHT22;11557;50.884;4.322;2022-11-15T00:12:37;12.50;99.90
22781;DHT22;11557;50.884;4.322;2022-11-15T00:15:03;12.50;99.90
22781;DHT22;11557;50.884;4.322;2022-11-15T00:17:29;12.50;99.90
22781;DHT22;11557;50.884;4.322;2022-11-15T00:19:55;12.60;99.90
22781;DHT22;11557;50.884;4.322;2022-11-15T00:22:21;12.70;99.90
22781;DHT22;11557;50.884;4.322;2022-11-15T00:24:46;12.60;99.90
22781;DHT22;11557;50.884;4.322;2022-11-15T00:27:12;12.60;99.90
22781;DHT22;11557;50.884;4.322;2022-11-15T00:29:38;12.50;99.90
22781;DHT22;11557;50.884;4.322;2022-11-15T00:32:09;12.80;99.90
22781;DHT22;11557;50.884;4.322;2022-11-15T00:34:34;12.60;99.90
22781;DHT22;11557;50.884;4.322;2022-11-15T00:37:00;12.60;99.90
22781;DHT22;11557;50.884;4.322;2022-11-15T00:39:26;12.70;99.90
22781;DHT22;11557;50.884;4.322;2022-11-15T00:41:51;13.50;99.90
22781;DHT22;11557;50.884;4.322;2022-11-15T00:44:17;12.80;99.90
22781;DHT22;11557;50.884;4.322;2022-11-15T00:46:43;13.50;99.90
22781;DHT22;11557;50.884;4.322;2022-11-15T00:49:08;12.90;99.90
22781;DHT22;11557;50.884;4.322;2022-11-15T00:51:34;12.90;99.90
22781;DHT22;11557;50.884;4.322;2022-11-15T00:53:59;12.90;99.90
22781;DHT22;11557;50.884;4.322;2022-11-15T00:56:25;12.90;99.90
22781;DHT22;11557;50.884;4.322;2022-11-15T00:58:51;12.90;99.90
22781;DHT22;11557;50.884;4.322;2022-11-15T01:01:17;12.80;99.90
22781;DHT22;11557;50.884;4.322;2022-11-15T01:03:43;12.90;99.90
22781;DHT22;11557;50.884;4.322;2022-11-15T01:06:09;13.00;99.90
22781;DHT22;11557;50.884;4.322;2022-11-15T01:08:35;13.80;99.90
22781;DHT22;11557;50.884;4.322;2022-11-15T01:11:06;14.10;99.90
22781;DHT22;11557;50.884;4.322;2022-11-15T01:13:33;13.10;99.90
22781;DHT22;11557;50.884;4.322;2022-11-15T01:16:10;13.20;99.90
22781;DHT22;11557;50.884;4.322;2022-11-15T01:18:37;13.20;99.90
22781;DHT22;11557;50.884;4.322;2022-11-15T01:21:11;13.20;99.90
22781;DHT22;11557;50.884;4.322;2022-11-15T01:23:37;14.40;99.90
22781;DHT22;11557;50.884;4.322;2022-11-15T01:26:04;13.10;99.90
22781;DHT22;11557;50.884;4.322;2022-11-15T01:28:32;13.10;99.90
22781;DHT22;11557;50.884;4.322;2022-11-15T01:30:59;13.10;99.90
22781;DHT22;11557;50.884;4.322;2022-11-15T01:33:26;13.10;99.90
22781;DHT22;11557;50.884;4.322;2022-11-15T01:35:51;13.00;99.90
22781;DHT22;11557;50.884;4.322;2022-11-15T01:38:17;13.00;99.90
22781;DHT22;11557;50.884;4.322;2022-11-15T01:40:42;13.10;99.90
22781;DHT22;11557;50.884;4.322;2022-11-15T01:43:29;13.20;99.90
22781;DHT22;11557;50.884;4.322;2022-11-15T01:48:48;13.00;99.90
22781;DHT22;11557;50.884;4.322;2022-11-15T01:51:18;13.00;99.90
22781;DHT22;11557;50.884;4.322;2022-11-15T01:53:47;13.70;99.90
22781;DHT22;11557;50.884;4.322;2022-11-15T01:56:19;13.10;99.90
22781;DHT22;11557;50.884;4.322;2022-11-15T01:58:45;13.00;99.90
22781;DHT22;11557;50.884;4.322;2022-11-15T02:01:12;13.10;99.90
22781;DHT22;11557;50.884;4.322;2022-11-15T02:03:59;13.00;99.90
22781;DHT22;11557;50.884;4.322;2022-11-15T02:06:26;12.90;99.90
22781;DHT22;11557;50.884;4.322;2022-11-15T02:08:52;12.90;99.90
22781;DHT22;11557;50.884;4.322;2022-11-15T02:11:18;13.00;99.90
22781;DHT22;11557;50.884;4.322;2022-11-15T02:13:44;12.90;99.90
22781;DHT22;11557;50.884;4.322;2022-11-15T02:16:25;12.90;99.90
22781;DHT22;11557;50.884;4.322;2022-11-15T02:25:13;13.00;99.90
22781;DHT22;11557;50.884;4.322;2022-11-15T02:31:17;13.00;99.90
22781;DHT22;11557;50.884;4.322;2022-11-15T02:33:53;13.10;99.90
22781;DHT22;11557;50.884;4.322;2022-11-15T02:39:28;13.20;99.90
22781;DHT22;11557;50.884;4.322;2022-11-15T02:42:01;13.20;99.90
22781;DHT22;11557;50.884;4.322;2022-11-15T02:44:37;13.00;99.90
22781;DHT22;11557;50.884;4.322;2022-11-15T02:47:10;13.00;99.90
22781;DHT22;11557;50.884;4.322;2022-11-15T02:52:17;13.10;99.90
22781;DHT22;11557;50.884;4.322;2022-11-15T02:54:43;12.50;99.90
22781;DHT22;11557;50.884;4.322;2022-11-15T02:57:18;13.80;99.90
22781;DHT22;11557;50.884;4.322;2022-11-15T02:59:55;13.30;99.90
22781;DHT22;11557;50.884;4.322;2022-11-15T03:02:54;13.10;99.90
22781;DHT22;11557;50.884;4.322;2022-11-15T03:11:08;13.10;99.90
22781;DHT22;11557;50.884;4.322;2022-11-15T03:16:08;13.10;99.90
22781;DHT22;11557;50.884;4.322;2022-11-15T03:18:42;13.00;99.90
22781;DHT22;11557;50.884;4.322;2022-11-15T03:21:10;14.20;99.90
22781;DHT22;11557;50.884;4.322;2022-11-15T03:23:38;13.10;99.90
22781;DHT22;11557;50.884;4.322;2022-11-15T03:26:08;13.10;99.90
22781;DHT22;11557;50.884;4.322;2022-11-15T03:28:49;13.10;99.90
22781;DHT22;11557;50.884;4.322;2022-11-15T03:31:19;13.10;99.90
22781;DHT22;11557;50.884;4.322;2022-11-15T03:34:08;13.00;99.90
22781;DHT22;11557;50.884;4.322;2022-11-15T03:36:36;13.00;99.90
22781;DHT22;11557;50.884;4.322;2022-11-15T03:39:06;13.20;99.90
22781;DHT22;11557;50.884;4.322;2022-11-15T03:45:20;13.00;99.90
22781;DHT22;11557;50.884;4.322;2022-11-15T03:47:59;12.90;99.90
22781;DHT22;11557;50.884;4.322;2022-11-15T03:50:27;12.80;99.90
22781;DHT22;11557;50.884;4.322;2022-11-15T03:52:54;12.80;99.90
22781;DHT22;11557;50.884;4.322;2022-11-15T03:55:21;12.80;99.90
22781;DHT22;11557;50.884;4.322;2022-11-15T03:57:50;12.80;99.90
22781;DHT22;11557;50.884;4.322;2022-11-15T04:00:16;12.80;99.90
22781;DHT22;11557;50.884;4.322;2022-11-15T04:02:42;12.70;99.90
22781;DHT22;11557;50.884;4.322;2022-11-15T04:05:08;12.70;99.90
22781;DHT22;11557;50.884;4.322;2022-11-15T04:07:33;12.60;99.90
22781;DHT22;11557;50.884;4.322;2022-11-15T04:09:59;12.70;99.90
22781;DHT22;11557;50.884;4.322;2022-11-15T04:12:30;13.40;99.90
22781;DHT22;11557;50.884;4.322;2022-11-15T04:15:00;12.80;99.90
22781;DHT22;11557;50.884;4.322;2022-11-15T04:20:22;12.70;99.90
22781;DHT22;11557;50.884;4.322;2022-11-15T04:23:10;12.70;99.90
22781;DHT22;11557;50.884;4.322;2022-11-15T04:25:56;12.70;99.90
22781;DHT22;11557;50.884;4.322;2022-11-15T04:28:23;12.70;99.90
22781;DHT22;11557;50.884;4.322;2022-11-15T04:30:49;12.70;99.90
22781;DHT22;11557;50.884;4.322;2022-11-15T04:33:15;12.80;99.90
22781;DHT22;11557;50.884;4.322;2022-11-15T04:35:41;12.70;99.90
22781;DHT22;11557;50.884;4.322;2022-11-15T04:38:08;12.70;99.90
22781;DHT22;11557;50.884;4.322;2022-11-15T04:40:35;12.80;99.90
22781;DHT22;11557;50.884;4.322;2022-11-15T04:43:00;12.90;99.90
22781;DHT22;11557;50.884;4.322;2022-11-15T04:45:26;12.60;99.90
22781;DHT22;11557;50.884;4.322;2022-11-15T04:47:54;12.50;99.90
22781;DHT22;11557;50.884;4.322;2022-11-15T04:50:19;13.10;99.90
22781;DHT22;11557;50.884;4.322;2022-11-15T04:52:54;13.00;99.90
22781;DHT22;11557;50.884;4.322;2022-11-15T04:55:20;12.50;99.90
22781;DHT22;11557;50.884;4.322;2022-11-15T04:57:46;12.40;99.90
22781;DHT22;11557;50.884;4.322;2022-11-15T05:00:13;12.40;99.90
22781;DHT22;11557;50.884;4.322;2022-11-15T05:02:39;12.50;99.90
22781;DHT22;11557;50.884;4.322;2022-11-15T05:05:24;12.30;99.90
22781;DHT22;11557;50.884;4.322;2022-11-15T05:07:50;12.30;99.90
22781;DHT22;11557;50.884;4.322;2022-11-15T05:10:16;12.30;99.90
22781;DHT22;11557;50.884;4.322;2022-11-15T05:12:42;12.30;99.90
22781;DHT22;11557;50.884;4.322;2022-11-15T05:15:08;12.30;99.90
22781;DHT22;11557;50.884;4.322;2022-11-15T05:17:34;12.40;99.90
22781;DHT22;11557;50.884;4.322;2022-11-15T05:19:59;12.30;99.90
22781;DHT22;11557;50.884;4.322;2022-11-15T05:22:25;13.20;99.90
22781;DHT22;11557;50.884;4.322;2022-11-15T05:24:52;12.20;99.90
22781;DHT22;11557;50.884;4.322;2022-11-15T05:27:17;12.20;99.90
22781;DHT22;11557;50.884;4.322;2022-11-15T05:29:43;12.10;99.90
22781;DHT22;11557;50.884;4.322;2022-11-15T05:32:09;12.10;99.90
22781;DHT22;11557;50.884;4.322;2022-11-15T05:34:35;12.80;99.90
22781;DHT22;11557;50.884;4.322;2022-11-15T05:37:01;12.10;99.90
22781;DHT22;11557;50.884;4.322;2022-11-15T05:39:26;13.00;99.90
22781;DHT22;11557;50.884;4.322;2022-11-15T05:42:16;12.20;99.90
22781;DHT22;11557;50.884;4.322;2022-11-15T05:44:46;12.00;99.90
22781;DHT22;11557;50.884;4.322;2022-11-15T05:47:17;12.00;99.90
22781;DHT22;11557;50.884;4.322;2022-11-15T05:49:44;11.90;99.90
22781;DHT22;11557;50.884;4.322;2022-11-15T05:52:13;11.90;99.90
22781;DHT22;11557;50.884;4.322;2022-11-15T05:54:40;11.80;99.90
22781;DHT22;11557;50.884;4.322;2022-11-15T05:57:06;13.10;99.90
22781;DHT22;11557;50.884;4.322;2022-11-15T05:59:33;11.90;99.90
22781;DHT22;11557;50.884;4.322;2022-11-15T06:02:00;12.60;99.90
22781;DHT22;11557;50.884;4.322;2022-11-15T06:04:25;12.00;99.90
22781;DHT22;11557;50.884;4.322;2022-11-15T06:06:51;11.60;99.90
22781;DHT22;11557;50.884;4.322;2022-11-15T06:09:17;12.50;99.90
22781;DHT22;11557;50.884;4.322;2022-11-15T06:11:42;11.60;99.90
22781;DHT22;11557;50.884;4.322;2022-11-15T06:14:08;12.00;99.90
22781;DHT22;11557;50.884;4.322;2022-11-15T06:16:35;12.00;99.90
22781;DHT22;11557;50.884;4.322;2022-11-15T06:19:00;11.50;99.90
22781;DHT22;11557;50.884;4.322;2022-11-15T06:21:26;11.40;99.90
22781;DHT22;11557;50.884;4.322;2022-11-15T06:23:53;12.00;99.90
22781;DHT22;11557;50.884;4.322;2022-11-15T06:26:19;11.40;99.90
22781;DHT22;11557;50.884;4.322;2022-11-15T06:28:45;11.50;99.90
22781;DHT22;11557;50.884;4.322;2022-11-15T06:31:11;11.50;99.90
22781;DHT22;11557;50.884;4.322;2022-11-15T06:33:40;11.80;99.90
22781;DHT22;11557;50.884;4.322;2022-11-15T06:36:08;12.20;99.90
22781;DHT22;11557;50.884;4.322;2022-11-15T06:38:35;11.60;99.90
22781;DHT22;11557;50.884;4.322;2022-11-15T06:41:03;11.50;99.90
22781;DHT22;11557;50.884;4.322;2022-11-15T06:43:31;12.20;99.90
22781;DHT22;11557;50.884;4.322;2022-11-15T06:45:58;11.40;99.90
22781;DHT22;11557;50.884;4.322;2022-11-15T06:48:24;11.70;99.90
22781;DHT22;11557;50.884;4.322;2022-11-15T06:50:55;11.90;99.90
22781;DHT22;11557;50.884;4.322;2022-11-15T06:53:21;11.50;99.90
22781;DHT22;11557;50.884;4.322;2022-11-15T06:55:47;11.90;99.90
22781;DHT22;11557;50.884;4.322;2022-11-15T06:58:12;11.40;99.90
22781;DHT22;11557;50.884;4.322;2022-11-15T07:00:38;11.60;99.90
22781;DHT22;11557;50.884;4.322;2022-11-15T07:03:06;11.60;99.90
22781;DHT22;11557;50.884;4.322;2022-11-15T07:05:32;11.50;99.90
22781;DHT22;11557;50.884;4.322;2022-11-15T07:07:59;11.50;99.90
22781;DHT22;11557;50.884;4.322;2022-11-15T07:10:25;11.50;99.90
22781;DHT22;11557;50.884;4.322;2022-11-15T07:12:52;11.40;99.90
22781;DHT22;11557;50.884;4.322;2022-11-15T07:15:19;11.50;99.90
22781;DHT22;11557;50.884;4.322;2022-11-15T07:17:45;11.30;99.90
22781;DHT22;11557;50.884;4.322;2022-11-15T07:20:11;12.10;99.90
22781;DHT22;11557;50.884;4.322;2022-11-15T07:22:40;11.30;99.90
22781;DHT22;11557;50.884;4.322;2022-11-15T07:25:06;11.10;99.90
22781;DHT22;11557;50.884;4.322;2022-11-15T07:27:32;11.10;99.90
22781;DHT22;11557;50.884;4.322;2022-11-15T07:29:58;11.10;99.90
22781;DHT22;11557;50.884;4.322;2022-11-15T07:32:24;11.40;99.90
22781;DHT22;11557;50.884;4.322;2022-11-15T07:34:50;11.50;99.90
22781;DHT22;11557;50.884;4.322;2022-11-15T07:37:15;11.30;99.90
22781;DHT22;11557;50.884;4.322;2022-11-15T07:39:42;11.30;99.90
22781;DHT22;11557;50.884;4.322;2022-11-15T07:42:08;11.30;99.90
22781;DHT22;11557;50.884;4.322;2022-11-15T07:44:52;11.50;99.90
22781;DHT22;11557;50.884;4.322;2022-11-15T07:47:18;12.00;99.90
22781;DHT22;11557;50.884;4.322;2022-11-15T07:49:44;11.80;99.90
22781;DHT22;11557;50.884;4.322;2022-11-15T07:52:11;11.40;99.90
22781;DHT22;11557;50.884;4.322;2022-11-15T07:54:37;12.10;99.90
22781;DHT22;11557;50.884;4.322;2022-11-15T07:57:03;12.50;99.90
22781;DHT22;11557;50.884;4.322;2022-11-15T07:59:29;11.60;99.90
22781;DHT22;11557;50.884;4.322;2022-11-15T08:01:54;11.20;99.90
22781;DHT22;11557;50.884;4.322;2022-11-15T08:04:21;11.10;99.90
22781;DHT22;11557;50.884;4.322;2022-11-15T08:06:47;11.20;99.90
22781;DHT22;11557;50.884;4.322;2022-11-15T08:09:13;11.60;99.90
22781;DHT22;11557;50.884;4.322;2022-11-15T08:11:38;11.10;99.90
22781;DHT22;11557;50.884;4.322;2022-11-15T08:14:04;11.10;99.90
22781;DHT22;11557;50.884;4.322;2022-11-15T08:16:30;12.10;99.90
22781;DHT22;11557;50.884;4.322;2022-11-15T08:18:55;11.60;99.90
22781;DHT22;11557;50.884;4.322;2022-11-15T08:21:21;11.20;99.90
22781;DHT22;11557;50.884;4.322;2022-11-15T08:23:47;11.10;99.90
22781;DHT22;11557;50.884;4.322;2022-11-15T08:26:12;11.90;99.90
22781;DHT22;11557;50.884;4.322;2022-11-15T08:28:38;11.50;99.90
22781;DHT22;11557;50.884;4.322;2022-11-15T08:31:04;11.30;99.90
22781;DHT22;11557;50.884;4.322;2022-11-15T08:33:31;11.80;99.90
22781;DHT22;11557;50.884;4.322;2022-11-15T08:35:57;11.30;99.90
22781;DHT22;11557;50.884;4.322;2022-11-15T08:38:24;12.40;99.90
22781;DHT22;11557;50.884;4.322;2022-11-15T08:40:58;11.30;99.90
22781;DHT22;11557;50.884;4.322;2022-11-15T08:43:25;12.00;99.90
22781;DHT22;11557;50.884;4.322;2022-11-15T08:45:50;11.60;99.90
22781;DHT22;11557;50.884;4.322;2022-11-15T08:48:17;11.50;99.90
22781;DHT22;11557;50.884;4.322;2022-11-15T08:50:43;11.60;99.90
22781;DHT22;11557;50.884;4.322;2022-11-15T08:53:10;11.30;99.90
22781;DHT22;11557;50.884;4.322;2022-11-15T08:55:37;11.20;99.90
22781;DHT22;11557;50.884;4.322;2022-11-15T08:58:04;12.00;99.90
22781;DHT22;11557;50.884;4.322;2022-11-15T09:00:30;11.30;99.90
22781;DHT22;11557;50.884;4.322;2022-11-15T09:02:56;11.40;99.90
22781;DHT22;11557;50.884;4.322;2022-11-15T09:05:22;11.60;99.90
22781;DHT22;11557;50.884;4.322;2022-11-15T09:07:53;11.60;99.90
22781;DHT22;11557;50.884;4.322;2022-11-15T09:10:18;11.60;99.90
22781;DHT22;11557;50.884;4.322;2022-11-15T09:12:44;11.80;99.90
22781;DHT22;11557;50.884;4.322;2022-11-15T09:15:09;11.80;99.90
22781;DHT22;11557;50.884;4.322;2022-11-15T09:17:35;11.90;99.90
22781;DHT22;11557;50.884;4.322;2022-11-15T09:20:00;11.90;99.90
22781;DHT22;11557;50.884;4.322;2022-11-15T09:22:26;13.50;99.90
22781;DHT22;11557;50.884;4.322;2022-11-15T09:24:52;11.80;99.90
22781;DHT22;11557;50.884;4.322;2022-11-15T09:27:17;11.90;99.90
22781;DHT22;11557;50.884;4.322;2022-11-15T09:29:43;11.90;99.90
22781;DHT22;11557;50.884;4.322;2022-11-15T09:32:09;11.90;99.90
22781;DHT22;11557;50.884;4.322;2022-11-15T09:34:34;12.00;99.90
22781;DHT22;11557;50.884;4.322;2022-11-15T09:37:00;13.00;99.90
22781;DHT22;11557;50.884;4.322;2022-11-15T09:39:26;12.40;99.90
22781;DHT22;11557;50.884;4.322;2022-11-15T09:42:03;12.10;99.90
22781;DHT22;11557;50.884;4.322;2022-11-15T09:50:09;14.70;99.90
22781;DHT22;11557;50.884;4.322;2022-11-15T09:52:36;15.10;99.90
22781;DHT22;11557;50.884;4.322;2022-11-15T09:55:05;15.60;99.90
22781;DHT22;11557;50.884;4.322;2022-11-15T09:57:39;16.00;99.90
22781;DHT22;11557;50.884;4.322;2022-11-15T10:00:21;16.00;99.90
22781;DHT22;11557;50.884;4.322;2022-11-15T10:02:56;15.80;99.90
22781;DHT22;11557;50.884;4.322;2022-11-15T10:05:25;16.00;99.90
22781;DHT22;11557;50.884;4.322;2022-11-15T10:08:45;16.10;99.90
22781;DHT22;11557;50.884;4.322;2022-11-15T10:13:16;16.20;99.90
22781;DHT22;11557;50.884;4.322;2022-11-15T10:15:46;16.50;99.90
22781;DHT22;11557;50.884;4.322;2022-11-15T10:19:05;16.70;99.90
22781;DHT22;11557;50.884;4.322;2022-11-15T10:21:40;16.70;99.90
22781;DHT22;11557;50.884;4.322;2022-11-15T10:24:12;16.70;99.90
22781;DHT22;11557;50.884;4.322;2022-11-15T10:26:39;16.10;99.90
22781;DHT22;11557;50.884;4.322;2022-11-15T10:29:10;16.20;99.90
22781;DHT22;11557;50.884;4.322;2022-11-15T10:31:40;15.80;99.90
22781;DHT22;11557;50.884;4.322;2022-11-15T10:34:17;15.50;99.90
22781;DHT22;11557;50.884;4.322;2022-11-15T10:37:00;15.30;99.90
22781;DHT22;11557;50.884;4.322;2022-11-15T10:39:28;15.00;99.90
22781;DHT22;11557;50.884;4.322;2022-11-15T10:41:54;14.90;99.90
22781;DHT22;11557;50.884;4.322;2022-11-15T10:47:04;14.80;99.90
22781;DHT22;11557;50.884;4.322;2022-11-15T10:49:32;14.30;99.90
22781;DHT22;11557;50.884;4.322;2022-11-15T10:52:15;14.30;99.90
22781;DHT22;11557;50.884;4.322;2022-11-15T10:54:54;14.10;99.90
22781;DHT22;11557;50.884;4.322;2022-11-15T10:57:27;14.00;99.90
22781;DHT22;11557;50.884;4.322;2022-11-15T11:05:34;14.00;99.90
22781;DHT22;11557;50.884;4.322;2022-11-15T11:10:56;14.10;99.90
22781;DHT22;11557;50.884;4.322;2022-11-15T11:21:57;14.10;99.90
22781;DHT22;11557;50.884;4.322;2022-11-15T11:24:43;14.00;99.90
22781;DHT22;11557;50.884;4.322;2022-11-15T11:33:05;14.20;99.90
22781;DHT22;11557;50.884;4.322;2022-11-15T11:41:14;14.40;99.90
22781;DHT22;11557;50.884;4.322;2022-11-15T11:49:10;14.00;99.90
22781;DHT22;11557;50.884;4.322;2022-11-15T11:54:39;14.00;99.90
22781;DHT22;11557;50.884;4.322;2022-11-15T11:57:13;13.90;99.90
22781;DHT22;11557;50.884;4.322;2022-11-15T11:59:53;14.00;99.90
22781;DHT22;11557;50.884;4.322;2022-11-15T12:02:40;14.10;99.90
22781;DHT22;11557;50.884;4.322;2022-11-15T12:05:20;13.90;99.90
22781;DHT22;11557;50.884;4.322;2022-11-15T12:07:49;14.00;99.90
22781;DHT22;11557;50.884;4.322;2022-11-15T12:10:23;14.10;99.90
22781;DHT22;11557;50.884;4.322;2022-11-15T12:12:58;13.90;99.90
22781;DHT22;11557;50.884;4.322;2022-11-15T12:15:54;15.10;99.90
22781;DHT22;11557;50.884;4.322;2022-11-15T12:18:22;14.00;99.90
22781;DHT22;11557;50.884;4.322;2022-11-15T12:21:07;13.90;99.90
22781;DHT22;11557;50.884;4.322;2022-11-15T12:23:46;13.80;99.90
22781;DHT22;11557;50.884;4.322;2022-11-15T12:26:20;14.00;99.90
22781;DHT22;11557;50.884;4.322;2022-11-15T12:31:23;14.10;99.90
22781;DHT22;11557;50.884;4.322;2022-11-15T12:33:49;14.10;99.90
22781;DHT22;11557;50.884;4.322;2022-11-15T12:41:31;14.30;99.90
22781;DHT22;11557;50.884;4.322;2022-11-15T12:43:57;14.20;99.90
22781;DHT22;11557;50.884;4.322;2022-11-15T12:49:00;14.50;99.90
22781;DHT22;11557;50.884;4.322;2022-11-15T12:59:54;14.30;99.90
22781;DHT22;11557;50.884;4.322;2022-11-15T13:02:40;14.40;99.90
22781;DHT22;11557;50.884;4.322;2022-11-15T13:17:47;15.00;99.90
22781;DHT22;11557;50.884;4.322;2022-11-15T13:22:47;14.60;99.90
22781;DHT22;11557;50.884;4.322;2022-11-15T13:27:55;14.60;99.90
22781;DHT22;11557;50.884;4.322;2022-11-15T13:30:25;14.60;99.90
22781;DHT22;11557;50.884;4.322;2022-11-15T13:32:51;14.60;99.90
22781;DHT22;11557;50.884;4.322;2022-11-15T13:35:26;14.50;99.90
22781;DHT22;11557;50.884;4.322;2022-11-15T13:37:53;14.60;99.90
22781;DHT22;11557;50.884;4.322;2022-11-15T13:40:21;14.60;99.90
22781;DHT22;11557;50.884;4.322;2022-11-15T13:42:47;14.50;99.90
22781;DHT22;11557;50.884;4.322;2022-11-15T13:45:17;14.40;99.90
22781;DHT22;11557;50.884;4.322;2022-11-15T13:47:43;14.60;99.90
22781;DHT22;11557;50.884;4.322;2022-11-15T13:50:13;14.30;99.90
22781;DHT22;11557;50.884;4.322;2022-11-15T13:52:40;14.30;99.90
22781;DHT22;11557;50.884;4.322;2022-11-15T13:55:17;14.30;99.90
22781;DHT22;11557;50.884;4.322;2022-11-15T13:58:19;14.20;99.90
22781;DHT22;11557;50.884;4.322;2022-11-15T14:00:43;14.30;99.90
22781;DHT22;11557;50.884;4.322;2022-11-15T14:03:25;14.70;99.90
22781;DHT22;11557;50.884;4.322;2022-11-15T14:06:20;14.40;99.90
22781;DHT22;11557;50.884;4.322;2022-11-15T14:11:58;14.40;99.90
22781;DHT22;11557;50.884;4.322;2022-11-15T14:14:25;14.30;99.90
22781;DHT22;11557;50.884;4.322;2022-11-15T14:16:59;14.30;99.90
22781;DHT22;11557;50.884;4.322;2022-11-15T14:24:44;14.30;99.90
22781;DHT22;11557;50.884;4.322;2022-11-15T14:27:35;14.20;99.90
22781;DHT22;11557;50.884;4.322;2022-11-15T14:30:02;14.20;99.90
22781;DHT22;11557;50.884;4.322;2022-11-15T14:32:29;14.10;99.90
22781;DHT22;11557;50.884;4.322;2022-11-15T14:35:03;14.20;99.90
22781;DHT22;11557;50.884;4.322;2022-11-15T14:37:33;14.10;99.90
22781;DHT22;11557;50.884;4.322;2022-11-15T14:40:04;14.00;99.90
22781;DHT22;11557;50.884;4.322;2022-11-15T14:42:30;13.90;99.90
22781;DHT22;11557;50.884;4.322;2022-11-15T14:44:56;13.90;99.90
22781;DHT22;11557;50.884;4.322;2022-11-15T14:47:22;13.90;99.90
22781;DHT22;11557;50.884;4.322;2022-11-15T14:49:47;15.00;99.90
22781;DHT22;11557;50.884;4.322;2022-11-15T14:52:28;13.80;99.90
22781;DHT22;11557;50.884;4.322;2022-11-15T14:54:56;13.90;99.90
22781;DHT22;11557;50.884;4.322;2022-11-15T14:57:23;13.90;99.90
22781;DHT22;11557;50.884;4.322;2022-11-15T14:59:49;13.90;99.90
22781;DHT22;11557;50.884;4.322;2022-11-15T15:02:20;13.80;99.90
22781;DHT22;11557;50.884;4.322;2022-11-15T15:04:47;13.80;99.90
22781;DHT22;11557;50.884;4.322;2022-11-15T15:07:13;14.00;99.90
22781;DHT22;11557;50.884;4.322;2022-11-15T15:09:39;13.80;99.90
22781;DHT22;11557;50.884;4.322;2022-11-15T15:12:19;13.80;99.90
22781;DHT22;11557;50.884;4.322;2022-11-15T15:14:46;13.70;99.90
22781;DHT22;11557;50.884;4.322;2022-11-15T15:17:13;13.70;99.90
22781;DHT22;11557;50.884;4.322;2022-11-15T15:19:38;13.70;99.90
22781;DHT22;11557;50.884;4.322;2022-11-15T15:22:04;13.70;99.90
22781;DHT22;11557;50.884;4.322;2022-11-15T15:24:30;13.70;99.90
22781;DHT22;11557;50.884;4.322;2022-11-15T15:26:56;13.60;99.90
22781;DHT22;11557;50.884;4.322;2022-11-15T15:29:21;13.60;99.90
22781;DHT22;11557;50.884;4.322;2022-11-15T15:31:47;13.70;99.90
22781;DHT22;11557;50.884;4.322;2022-11-15T15:34:13;13.70;99.90
22781;DHT22;11557;50.884;4.322;2022-11-15T15:36:39;13.80;99.90
22781;DHT22;11557;50.884;4.322;2022-11-15T15:39:04;13.70;99.90
22781;DHT22;11557;50.884;4.322;2022-11-15T15:41:30;13.70;99.90
22781;DHT22;11557;50.884;4.322;2022-11-15T15:43:55;13.50;99.90
22781;DHT22;11557;50.884;4.322;2022-11-15T15:46:21;13.60;99.90
22781;DHT22;11557;50.884;4.322;2022-11-15T15:48:47;13.50;99.90
22781;DHT22;11557;50.884;4.322;2022-11-15T15:51:13;13.40;99.90
22781;DHT22;11557;50.884;4.322;2022-11-15T15:53:39;13.40;99.90
22781;DHT22;11557;50.884;4.322;2022-11-15T15:56:05;13.40;99.90
22781;DHT22;11557;50.884;4.322;2022-11-15T15:58:33;13.50;99.90
22781;DHT22;11557;50.884;4.322;2022-11-15T16:00:59;13.50;99.90
22781;DHT22;11557;50.884;4.322;2022-11-15T16:03:25;13.40;99.90
22781;DHT22;11557;50.884;4.322;2022-11-15T16:05:50;13.50;99.90
22781;DHT22;11557;50.884;4.322;2022-11-15T16:08:20;13.50;99.90
22781;DHT22;11557;50.884;4.322;2022-11-15T16:10:47;13.40;99.90
22781;DHT22;11557;50.884;4.322;2022-11-15T16:13:12;13.70;99.90
22781;DHT22;11557;50.884;4.322;2022-11-15T16:15:38;13.40;99.90
22781;DHT22;11557;50.884;4.322;2022-11-15T16:18:04;13.70;99.90
22781;DHT22;11557;50.884;4.322;2022-11-15T16:20:44;13.40;99.90
22781;DHT22;11557;50.884;4.322;2022-11-15T16:23:13;13.50;99.90
22781;DHT22;11557;50.884;4.322;2022-11-15T16:25:49;13.60;99.90
22781;DHT22;11557;50.884;4.322;2022-11-15T16:28:24;13.50;99.90
22781;DHT22;11557;50.884;4.322;2022-11-15T16:31:09;13.70;99.90
22781;DHT22;11557;50.884;4.322;2022-11-15T16:33:34;13.50;99.90
22781;DHT22;11557;50.884;4.322;2022-11-15T16:36:01;13.50;99.90
22781;DHT22;11557;50.884;4.322;2022-11-15T16:38:27;13.50;99.90
22781;DHT22;11557;50.884;4.322;2022-11-15T16:40:52;13.50;99.90
22781;DHT22;11557;50.884;4.322;2022-11-15T16:43:18;13.80;99.90
22781;DHT22;11557;50.884;4.322;2022-11-15T16:45:44;13.40;99.90
22781;DHT22;11557;50.884;4.322;2022-11-15T16:48:22;13.70;99.90
22781;DHT22;11557;50.884;4.322;2022-11-15T16:50:49;13.30;99.90
22781;DHT22;11557;50.884;4.322;2022-11-15T16:53:15;13.40;99.90
22781;DHT22;11557;50.884;4.322;2022-11-15T16:55:41;14.30;99.90
22781;DHT22;11557;50.884;4.322;2022-11-15T16:58:08;13.40;99.90
22781;DHT22;11557;50.884;4.322;2022-11-15T17:00:34;13.40;99.90
22781;DHT22;11557;50.884;4.322;2022-11-15T17:03:00;13.40;99.90
22781;DHT22;11557;50.884;4.322;2022-11-15T17:05:26;13.40;99.90
22781;DHT22;11557;50.884;4.322;2022-11-15T17:07:52;13.50;99.90
22781;DHT22;11557;50.884;4.322;2022-11-15T17:10:22;13.60;99.90
22781;DHT22;11557;50.884;4.322;2022-11-15T17:12:49;13.60;99.90
22781;DHT22;11557;50.884;4.322;2022-11-15T17:15:15;13.60;99.90
22781;DHT22;11557;50.884;4.322;2022-11-15T17:17:41;14.30;99.90
22781;DHT22;11557;50.884;4.322;2022-11-15T17:20:14;13.50;99.90
22781;DHT22;11557;50.884;4.322;2022-11-15T17:22:40;13.50;99.90
22781;DHT22;11557;50.884;4.322;2022-11-15T17:25:06;13.50;99.90
22781;DHT22;11557;50.884;4.322;2022-11-15T17:27:32;13.60;99.90
22781;DHT22;11557;50.884;4.322;2022-11-15T17:29:58;13.60;99.90
22781;DHT22;11557;50.884;4.322;2022-11-15T17:32:23;14.10;99.90
22781;DHT22;11557;50.884;4.322;2022-11-15T17:34:49;13.60;99.90
22781;DHT22;11557;50.884;4.322;2022-11-15T17:37:14;13.50;99.90
22781;DHT22;11557;50.884;4.322;2022-11-15T17:39:40;13.50;99.90
22781;DHT22;11557;50.884;4.322;2022-11-15T17:42:06;13.50;99.90
22781;DHT22;11557;50.884;4.322;2022-11-15T17:44:32;14.00;99.90
22781;DHT22;11557;50.884;4.322;2022-11-15T17:46:58;13.40;99.90